sensor_id;sensor_type;location;lat;lon;timestamp;pressure;altitude;pressure_sealevel;temperature;humidity
15646;BME280;7922;43.622;1.476;2023-02-18T00:02:03;101625.38;;;5.29;87.63
15646;BME280;7922;43.622;1.476;2023-02-18T00:04:29;101613.94;;;5.16;88.13
15646;BME280;7922;43.622;1.476;2023-02-18T00:06:55;101475.16;;;4.34;88.09
15646;BME280;7922;43.622;1.476;2023-02-18T00:09:20;101442.75;;;4.26;87.77
15646;BME280;7922;43.622;1.476;2023-02-18T00:11:45;101513.88;;;4.72;87.66
15646;BME280;7922;43.622;1.476;2023-02-18T00:14:13;101641.22;;;5.43;88.67
15646;BME280;7922;43.622;1.476;2023-02-18T00:16:39;101589.44;;;5.17;87.51
15646;BME280;7922;43.622;1.476;2023-02-18T00:19:06;101513.03;;;4.73;87.29
15646;BME280;7922;43.622;1.476;2023-02-18T00:21:33;101620.97;;;5.26;87.79
15646;BME280;7922;43.622;1.476;2023-02-18T00:23:59;101544.56;;;4.80;87.89
15646;BME280;7922;43.622;1.476;2023-02-18T00:26:25;101545.44;;;4.79;88.14
15646;BME280;7922;43.622;1.476;2023-02-18T00:28:50;101606.03;;;5.15;88.21
15646;BME280;7922;43.622;1.476;2023-02-18T00:31:19;101639.44;;;5.34;87.50
15646;BME280;7922;43.622;1.476;2023-02-18T00:33:46;101617.41;;;5.14;87.68
15646;BME280;7922;43.622;1.476;2023-02-18T00:36:13;101473.41;;;4.39;87.81
15646;BME280;7922;43.622;1.476;2023-02-18T00:38:46;101493.63;;;4.51;87.35
15646;BME280;7922;43.622;1.476;2023-02-18T00:41:12;101526.03;;;4.61;87.66
15646;BME280;7922;43.622;1.476;2023-02-18T00:43:37;101453.19;;;4.20;87.46
15646;BME280;7922;43.622;1.476;2023-02-18T00:46:03;101580.50;;;4.89;87.40
15646;BME280;7922;43.622;1.476;2023-02-18T00:48:28;101622.63;;;5.07;87.78
15646;BME280;7922;43.622;1.476;2023-02-18T00:50:53;101590.13;;;4.89;87.97
15646;BME280;7922;43.622;1.476;2023-02-18T00:53:19;101622.53;;;4.94;87.54
15646;BME280;7922;43.622;1.476;2023-02-18T00:55:45;101439.88;;;3.95;88.42
15646;BME280;7922;43.622;1.476;2023-02-18T00:58:10;101616.41;;;4.93;87.83
15646;BME280;7922;43.622;1.476;2023-02-18T01:00:36;101514.50;;;4.34;87.92
15646;BME280;7922;43.622;1.476;2023-02-18T01:03:03;101656.84;;;5.18;88.24
15646;BME280;7922;43.622;1.476;2023-02-18T01:05:28;101459.13;;;3.99;88.42
15646;BME280;7922;43.622;1.476;2023-02-18T01:07:53;101611.06;;;4.82;87.81
15646;BME280;7922;43.622;1.476;2023-02-18T01:10:19;101642.66;;;4.93;88.72
15646;BME280;7922;43.622;1.476;2023-02-18T01:12:44;101577.63;;;4.55;88.19
15646;BME280;7922;43.622;1.476;2023-02-18T01:15:13;101488.84;;;3.98;88.71
15646;BME280;7922;43.622;1.476;2023-02-18T01:17:38;101594.22;;;4.51;89.22
15646;BME280;7922;43.622;1.476;2023-02-18T01:20:04;101639.88;;;4.75;89.54
15646;BME280;7922;43.622;1.476;2023-02-18T01:22:30;101501.03;;;3.94;88.82
15646;BME280;7922;43.622;1.476;2023-02-18T01:24:55;101652.22;;;4.85;88.45
15646;BME280;7922;43.622;1.476;2023-02-18T01:27:20;101490.56;;;3.93;88.15
15646;BME280;7922;43.622;1.476;2023-02-18T01:29:46;101559.06;;;4.29;88.78
15646;BME280;7922;43.622;1.476;2023-02-18T01:32:11;101567.03;;;4.40;88.72
15646;BME280;7922;43.622;1.476;2023-02-18T01:34:36;101478.25;;;3.85;88.96
15646;BME280;7922;43.622;1.476;2023-02-18T01:37:02;101590.66;;;4.45;88.65
15646;BME280;7922;43.622;1.476;2023-02-18T01:39:27;101428.25;;;3.59;89.27
15646;BME280;7922;43.622;1.476;2023-02-18T01:41:52;101425.59;;;3.58;88.61
15646;BME280;7922;43.622;1.476;2023-02-18T01:44:24;101481.75;;;3.88;88.47
15646;BME280;7922;43.622;1.476;2023-02-18T01:46:51;101542.34;;;4.20;88.75
15646;BME280;7922;43.622;1.476;2023-02-18T01:49:23;101617.06;;;4.63;88.72
15646;BME280;7922;43.622;1.476;2023-02-18T01:51:55;101485.31;;;3.93;88.66
15646;BME280;7922;43.622;1.476;2023-02-18T01:54:27;101448.31;;;3.60;88.44
15646;BME280;7922;43.622;1.476;2023-02-18T01:56:56;101597.59;;;4.38;88.75
15646;BME280;7922;43.622;1.476;2023-02-18T01:59:27;101623.19;;;4.64;88.28
15646;BME280;7922;43.622;1.476;2023-02-18T02:01:54;101571.31;;;4.32;87.84
15646;BME280;7922;43.622;1.476;2023-02-18T02:04:20;101604.63;;;4.42;88.37
15646;BME280;7922;43.622;1.476;2023-02-18T02:06:45;101582.63;;;4.26;87.89
15646;BME280;7922;43.622;1.476;2023-02-18T02:09:15;101529.94;;;4.00;88.16
15646;BME280;7922;43.622;1.476;2023-02-18T02:14:21;101645.88;;;4.55;88.00
15646;BME280;7922;43.622;1.476;2023-02-18T02:17:01;101661.53;;;4.49;89.10
15646;BME280;7922;43.622;1.476;2023-02-18T02:19:55;101644.91;;;4.49;88.63
15646;BME280;7922;43.622;1.476;2023-02-18T02:22:49;101593.94;;;4.18;88.61
15646;BME280;7922;43.622;1.476;2023-02-18T02:37:25;101569.13;;;3.88;89.26
15646;BME280;7922;43.622;1.476;2023-02-18T02:40:00;101593.75;;;4.02;89.25
15646;BME280;7922;43.622;1.476;2023-02-18T02:50:30;101581.44;;;3.95;90.30
15646;BME280;7922;43.622;1.476;2023-02-18T02:53:01;101570.84;;;3.84;90.10
15646;BME280;7922;43.622;1.476;2023-02-18T02:55:29;101548.06;;;3.77;89.74
15646;BME280;7922;43.622;1.476;2023-02-18T02:57:55;101495.31;;;3.47;90.52
15646;BME280;7922;43.622;1.476;2023-02-18T03:00:30;101418.00;;;3.00;90.02
15646;BME280;7922;43.622;1.476;2023-02-18T03:11:06;101525.97;;;3.52;89.66
15646;BME280;7922;43.622;1.476;2023-02-18T03:18:46;101567.19;;;3.70;89.41
15646;BME280;7922;43.622;1.476;2023-02-18T03:21:26;101410.75;;;2.78;89.56
15646;BME280;7922;43.622;1.476;2023-02-18T03:27:11;101602.25;;;3.78;89.85
15646;BME280;7922;43.622;1.476;2023-02-18T03:29:39;101509.09;;;3.29;89.84
15646;BME280;7922;43.622;1.476;2023-02-18T03:32:07;101575.97;;;3.74;90.05
15646;BME280;7922;43.622;1.476;2023-02-18T03:34:38;101594.44;;;3.83;89.25
15646;BME280;7922;43.622;1.476;2023-02-18T03:37:06;101529.25;;;3.34;90.16
15646;BME280;7922;43.622;1.476;2023-02-18T03:39:35;101545.75;;;3.27;90.43
15646;BME280;7922;43.622;1.476;2023-02-18T03:42:01;101343.84;;;2.27;90.71
15646;BME280;7922;43.622;1.476;2023-02-18T03:44:26;101494.94;;;3.14;90.21
15646;BME280;7922;43.622;1.476;2023-02-18T03:46:52;101550.31;;;3.44;90.18
15646;BME280;7922;43.622;1.476;2023-02-18T03:49:17;101526.59;;;3.33;90.01
15646;BME280;7922;43.622;1.476;2023-02-18T03:51:43;101509.00;;;3.21;89.90
15646;BME280;7922;43.622;1.476;2023-02-18T03:54:09;101419.38;;;2.72;89.87
15646;BME280;7922;43.622;1.476;2023-02-18T03:56:36;101445.81;;;2.91;89.81
15646;BME280;7922;43.622;1.476;2023-02-18T03:59:02;101358.84;;;2.43;89.52
15646;BME280;7922;43.622;1.476;2023-02-18T04:01:28;101582.94;;;3.72;89.93
15646;BME280;7922;43.622;1.476;2023-02-18T04:03:53;101553.00;;;3.51;89.41
15646;BME280;7922;43.622;1.476;2023-02-18T04:06:18;101546.88;;;3.49;89.81
15646;BME280;7922;43.622;1.476;2023-02-18T04:08:43;101585.53;;;3.70;89.31
15646;BME280;7922;43.622;1.476;2023-02-18T04:11:09;101466.84;;;3.01;90.02
15646;BME280;7922;43.622;1.476;2023-02-18T04:13:34;101527.38;;;3.26;89.56
15646;BME280;7922;43.622;1.476;2023-02-18T04:15:59;101530.03;;;3.27;89.13
15646;BME280;7922;43.622;1.476;2023-02-18T04:18:25;101539.69;;;3.33;90.16
15646;BME280;7922;43.622;1.476;2023-02-18T04:20:50;101411.34;;;2.55;90.05
15646;BME280;7922;43.622;1.476;2023-02-18T04:23:16;101545.75;;;3.27;89.98
15646;BME280;7922;43.622;1.476;2023-02-18T04:25:41;101507.75;;;2.93;89.86
15646;BME280;7922;43.622;1.476;2023-02-18T04:28:06;101535.97;;;3.14;90.22
15646;BME280;7922;43.622;1.476;2023-02-18T04:30:31;101586.09;;;3.45;90.41
15646;BME280;7922;43.622;1.476;2023-02-18T04:32:57;101420.88;;;2.52;90.20
15646;BME280;7922;43.622;1.476;2023-02-18T04:35:22;101478.84;;;2.82;90.06
15646;BME280;7922;43.622;1.476;2023-02-18T04:37:48;101430.47;;;2.53;89.65
15646;BME280;7922;43.622;1.476;2023-02-18T04:40:14;101509.66;;;3.05;89.52
15646;BME280;7922;43.622;1.476;2023-02-18T04:42:39;101561.56;;;3.35;89.51
15646;BME280;7922;43.622;1.476;2023-02-18T04:45:05;101498.16;;;2.91;89.69
15646;BME280;7922;43.622;1.476;2023-02-18T04:47:31;101556.19;;;3.24;88.96
15646;BME280;7922;43.622;1.476;2023-02-18T04:49:56;101533.16;;;3.00;88.84
15646;BME280;7922;43.622;1.476;2023-02-18T04:52:21;101532.19;;;2.94;90.26
15646;BME280;7922;43.622;1.476;2023-02-18T04:54:47;101496.13;;;2.71;90.16
15646;BME280;7922;43.622;1.476;2023-02-18T04:57:12;101534.75;;;2.89;90.31
15646;BME280;7922;43.622;1.476;2023-02-18T04:59:38;101518.91;;;2.77;90.88
15646;BME280;7922;43.622;1.476;2023-02-18T05:02:04;101376.31;;;1.83;90.24
15646;BME280;7922;43.622;1.476;2023-02-18T05:04:29;101510.91;;;2.68;90.53
15646;BME280;7922;43.622;1.476;2023-02-18T05:06:54;101514.28;;;2.59;90.66
15646;BME280;7922;43.622;1.476;2023-02-18T05:09:20;101507.19;;;2.52;90.63
15646;BME280;7922;43.622;1.476;2023-02-18T05:11:45;101588.91;;;2.93;91.15
15646;BME280;7922;43.622;1.476;2023-02-18T05:14:11;101592.47;;;2.98;91.50
15646;BME280;7922;43.622;1.476;2023-02-18T05:16:36;101547.53;;;2.68;90.68
15646;BME280;7922;43.622;1.476;2023-02-18T05:19:01;101300.66;;;1.33;90.57
15646;BME280;7922;43.622;1.476;2023-02-18T05:21:27;101404.19;;;1.84;90.56
15646;BME280;7922;43.622;1.476;2023-02-18T05:23:52;101490.31;;;2.31;91.22
15646;BME280;7922;43.622;1.476;2023-02-18T05:26:17;101532.47;;;2.53;90.95
15646;BME280;7922;43.622;1.476;2023-02-18T05:28:43;101550.94;;;2.62;91.26
15646;BME280;7922;43.622;1.476;2023-02-18T05:31:08;101574.63;;;2.71;90.90
15646;BME280;7922;43.622;1.476;2023-02-18T05:33:33;101225.66;;;0.70;90.92
15646;BME280;7922;43.622;1.476;2023-02-18T05:35:59;101578.97;;;2.69;91.17
15646;BME280;7922;43.622;1.476;2023-02-18T05:38:24;101548.22;;;2.56;90.88
15646;BME280;7922;43.622;1.476;2023-02-18T05:40:50;101519.06;;;2.30;90.46
15646;BME280;7922;43.622;1.476;2023-02-18T05:43:15;101530.50;;;2.39;90.68
15646;BME280;7922;43.622;1.476;2023-02-18T05:45:40;101545.38;;;2.40;90.75
15646;BME280;7922;43.622;1.476;2023-02-18T05:48:06;101569.03;;;2.50;91.35
15646;BME280;7922;43.622;1.476;2023-02-18T05:50:31;101612.34;;;2.84;90.99
15646;BME280;7922;43.622;1.476;2023-02-18T05:52:56;101558.69;;;2.57;91.38
15646;BME280;7922;43.622;1.476;2023-02-18T05:55:22;101522.59;;;2.35;90.85
15646;BME280;7922;43.622;1.476;2023-02-18T05:57:47;101403.94;;;1.69;91.02
15646;BME280;7922;43.622;1.476;2023-02-18T06:00:13;101493.66;;;2.23;91.39
15646;BME280;7922;43.622;1.476;2023-02-18T06:02:38;101571.13;;;2.69;90.93
15646;BME280;7922;43.622;1.476;2023-02-18T06:05:04;101598.38;;;2.83;90.52
15646;BME280;7922;43.622;1.476;2023-02-18T06:07:30;101565.81;;;2.66;90.82
15646;BME280;7922;43.622;1.476;2023-02-18T06:09:55;101532.41;;;2.48;90.52
15646;BME280;7922;43.622;1.476;2023-02-18T06:12:21;101452.25;;;1.94;90.51
15646;BME280;7922;43.622;1.476;2023-02-18T06:14:46;101555.97;;;2.48;90.19
15646;BME280;7922;43.622;1.476;2023-02-18T06:17:12;101509.38;;;2.24;90.86
15646;BME280;7922;43.622;1.476;2023-02-18T06:19:38;101487.34;;;2.10;90.91
15646;BME280;7922;43.622;1.476;2023-02-18T06:22:04;101489.16;;;2.14;90.80
15646;BME280;7922;43.622;1.476;2023-02-18T06:24:30;101517.84;;;2.09;91.10
15646;BME280;7922;43.622;1.476;2023-02-18T06:26:55;101524.19;;;2.24;91.37
15646;BME280;7922;43.622;1.476;2023-02-18T06:29:20;101514.59;;;2.23;91.21
15646;BME280;7922;43.622;1.476;2023-02-18T06:31:46;101413.34;;;1.58;90.78
15646;BME280;7922;43.622;1.476;2023-02-18T06:34:11;101547.88;;;2.33;90.96
15646;BME280;7922;43.622;1.476;2023-02-18T06:36:36;101460.78;;;1.82;90.99
15646;BME280;7922;43.622;1.476;2023-02-18T06:39:03;101598.97;;;2.65;90.68
15646;BME280;7922;43.622;1.476;2023-02-18T06:41:28;101524.88;;;2.13;90.16
15646;BME280;7922;43.622;1.476;2023-02-18T06:43:54;101559.22;;;2.33;90.59
15646;BME280;7922;43.622;1.476;2023-02-18T06:46:19;101554.88;;;2.35;90.88
15646;BME280;7922;43.622;1.476;2023-02-18T06:48:44;101588.22;;;2.50;90.83
15646;BME280;7922;43.622;1.476;2023-02-18T06:51:10;101598.72;;;2.52;90.97
15646;BME280;7922;43.622;1.476;2023-02-18T06:53:35;101529.22;;;2.13;91.03
15646;BME280;7922;43.622;1.476;2023-02-18T06:56:00;101463.34;;;1.79;90.45
15646;BME280;7922;43.622;1.476;2023-02-18T06:58:26;101584.75;;;2.50;90.74
15646;BME280;7922;43.622;1.476;2023-02-18T07:00:51;101548.69;;;2.30;90.20
15646;BME280;7922;43.622;1.476;2023-02-18T07:03:16;101587.44;;;2.54;90.13
15646;BME280;7922;43.622;1.476;2023-02-18T07:05:41;101613.97;;;2.77;90.66
15646;BME280;7922;43.622;1.476;2023-02-18T07:08:07;101579.84;;;2.70;90.44
15646;BME280;7922;43.622;1.476;2023-02-18T07:10:33;101563.06;;;2.57;89.76
15646;BME280;7922;43.622;1.476;2023-02-18T07:12:58;101586.06;;;2.78;89.47
15646;BME280;7922;43.622;1.476;2023-02-18T07:15:23;101494.66;;;2.32;89.00
15646;BME280;7922;43.622;1.476;2023-02-18T07:17:52;101490.34;;;2.34;88.80
15646;BME280;7922;43.622;1.476;2023-02-18T07:20:18;101446.56;;;2.20;88.80
15646;BME280;7922;43.622;1.476;2023-02-18T07:22:44;101567.91;;;2.87;88.46
15646;BME280;7922;43.622;1.476;2023-02-18T07:25:09;101464.16;;;2.30;88.77
15646;BME280;7922;43.622;1.476;2023-02-18T07:27:34;101540.81;;;2.86;88.58
15646;BME280;7922;43.622;1.476;2023-02-18T07:29:59;101474.06;;;2.54;89.02
15646;BME280;7922;43.622;1.476;2023-02-18T07:32:25;101480.28;;;2.59;88.41
15646;BME280;7922;43.622;1.476;2023-02-18T07:34:51;101533.25;;;3.06;87.95
15646;BME280;7922;43.622;1.476;2023-02-18T07:37:16;101553.53;;;3.23;87.71
15646;BME280;7922;43.622;1.476;2023-02-18T07:39:42;101602.81;;;3.53;87.68
15646;BME280;7922;43.622;1.476;2023-02-18T07:42:08;101596.84;;;3.66;87.25
15646;BME280;7922;43.622;1.476;2023-02-18T07:44:35;101476.53;;;3.05;86.74
15646;BME280;7922;43.622;1.476;2023-02-18T07:47:00;101626.88;;;3.96;87.06
15646;BME280;7922;43.622;1.476;2023-02-18T07:49:25;101619.09;;;4.02;86.59
15646;BME280;7922;43.622;1.476;2023-02-18T07:51:51;101476.84;;;3.33;85.69
15646;BME280;7922;43.622;1.476;2023-02-18T07:54:16;101607.06;;;4.22;86.59
15646;BME280;7922;43.622;1.476;2023-02-18T07:56:41;101560.53;;;4.03;86.12
15646;BME280;7922;43.622;1.476;2023-02-18T07:59:07;101584.41;;;4.32;85.64
15646;BME280;7922;43.622;1.476;2023-02-18T08:01:33;101594.22;;;4.53;85.16
15646;BME280;7922;43.622;1.476;2023-02-18T08:03:58;101574.91;;;4.45;85.02
15646;BME280;7922;43.622;1.476;2023-02-18T08:06:34;101650.59;;;4.99;84.81
15646;BME280;7922;43.622;1.476;2023-02-18T08:09:00;101560.13;;;4.54;85.04
15646;BME280;7922;43.622;1.476;2023-02-18T08:11:25;101502.28;;;4.36;84.74
15646;BME280;7922;43.622;1.476;2023-02-18T08:13:50;101607.72;;;5.02;83.70
15646;BME280;7922;43.622;1.476;2023-02-18T08:16:18;101443.63;;;4.31;83.26
15646;BME280;7922;43.622;1.476;2023-02-18T08:18:44;101586.84;;;5.29;83.09
15646;BME280;7922;43.622;1.476;2023-02-18T08:21:09;101622.91;;;5.58;82.63
15646;BME280;7922;43.622;1.476;2023-02-18T08:23:35;101607.16;;;5.64;82.79
15646;BME280;7922;43.622;1.476;2023-02-18T08:26:00;101633.56;;;5.90;82.92
15646;BME280;7922;43.622;1.476;2023-02-18T08:28:26;101527.34;;;5.39;82.13
15646;BME280;7922;43.622;1.476;2023-02-18T08:30:52;101489.66;;;5.31;82.01
15646;BME280;7922;43.622;1.476;2023-02-18T08:33:18;101607.31;;;6.04;81.82
15646;BME280;7922;43.622;1.476;2023-02-18T08:35:45;101631.94;;;6.31;82.42
15646;BME280;7922;43.622;1.476;2023-02-18T08:38:10;101452.88;;;5.36;81.89
15646;BME280;7922;43.622;1.476;2023-02-18T08:40:36;101634.56;;;6.49;82.42
15646;BME280;7922;43.622;1.476;2023-02-18T08:43:01;101593.34;;;6.36;82.03
15646;BME280;7922;43.622;1.476;2023-02-18T08:45:26;101556.47;;;6.31;82.06
15646;BME280;7922;43.622;1.476;2023-02-18T08:47:52;101528.44;;;6.25;82.06
15646;BME280;7922;43.622;1.476;2023-02-18T08:50:17;101484.56;;;6.12;81.67
15646;BME280;7922;43.622;1.476;2023-02-18T08:52:43;101601.22;;;6.94;81.45
15646;BME280;7922;43.622;1.476;2023-02-18T08:55:08;101574.91;;;6.80;81.25
15646;BME280;7922;43.622;1.476;2023-02-18T08:57:33;101488.03;;;6.56;80.74
15646;BME280;7922;43.622;1.476;2023-02-18T08:59:59;101624.81;;;7.40;81.19
15646;BME280;7922;43.622;1.476;2023-02-18T09:02:24;101616.91;;;7.40;81.02
15646;BME280;7922;43.622;1.476;2023-02-18T09:04:49;101529.22;;;7.01;80.63
15646;BME280;7922;43.622;1.476;2023-02-18T09:07:15;101529.09;;;7.22;80.39
15646;BME280;7922;43.622;1.476;2023-02-18T09:09:40;101638.78;;;7.69;80.74
15646;BME280;7922;43.622;1.476;2023-02-18T09:12:05;101475.66;;;6.88;81.07
15646;BME280;7922;43.622;1.476;2023-02-18T09:14:31;101663.22;;;8.14;80.33
15646;BME280;7922;43.622;1.476;2023-02-18T09:16:57;101500.94;;;7.38;79.88
15646;BME280;7922;43.622;1.476;2023-02-18T09:19:22;101610.41;;;8.13;79.25
15646;BME280;7922;43.622;1.476;2023-02-18T09:21:47;101602.50;;;8.13;79.33
15646;BME280;7922;43.622;1.476;2023-02-18T09:24:13;101497.16;;;7.82;78.74
15646;BME280;7922;43.622;1.476;2023-02-18T09:26:38;101557.53;;;8.27;77.96
15646;BME280;7922;43.622;1.476;2023-02-18T09:29:03;101521.72;;;7.93;77.52
15646;BME280;7922;43.622;1.476;2023-02-18T09:31:28;101611.09;;;8.46;77.57
15646;BME280;7922;43.622;1.476;2023-02-18T09:33:59;101539.94;;;8.24;77.38
15646;BME280;7922;43.622;1.476;2023-02-18T09:36:26;101535.47;;;8.37;77.18
15646;BME280;7922;43.622;1.476;2023-02-18T09:38:52;101522.28;;;8.40;76.78
15646;BME280;7922;43.622;1.476;2023-02-18T09:41:43;101665.81;;;9.36;76.59
15646;BME280;7922;43.622;1.476;2023-02-18T09:44:22;101523.69;;;8.76;76.38
15646;BME280;7922;43.622;1.476;2023-02-18T09:46:53;101488.53;;;8.70;75.76
15646;BME280;7922;43.622;1.476;2023-02-18T09:49:22;101605.59;;;9.59;75.32
15646;BME280;7922;43.622;1.476;2023-02-18T09:51:49;101553.91;;;9.31;74.32
15646;BME280;7922;43.622;1.476;2023-02-18T09:54:17;101597.53;;;9.70;74.31
15646;BME280;7922;43.622;1.476;2023-02-18T09:56:43;101648.31;;;9.98;73.65
15646;BME280;7922;43.622;1.476;2023-02-18T09:59:16;101588.66;;;9.74;72.65
15646;BME280;7922;43.622;1.476;2023-02-18T10:01:42;101586.72;;;9.85;73.61
15646;BME280;7922;43.622;1.476;2023-02-18T10:04:30;101611.94;;;10.14;72.61
15646;BME280;7922;43.622;1.476;2023-02-18T10:07:01;101612.72;;;10.19;72.20
15646;BME280;7922;43.622;1.476;2023-02-18T10:09:31;101470.81;;;9.49;71.82
15646;BME280;7922;43.622;1.476;2023-02-18T10:12:10;101570.59;;;10.04;72.94
15646;BME280;7922;43.622;1.476;2023-02-18T10:14:37;101610.66;;;10.41;71.50
15646;BME280;7922;43.622;1.476;2023-02-18T10:17:03;101592.94;;;10.45;70.81
15646;BME280;7922;43.622;1.476;2023-02-18T10:19:39;101579.50;;;10.57;70.98
15646;BME280;7922;43.622;1.476;2023-02-18T10:22:06;101508.38;;;10.31;70.26
15646;BME280;7922;43.622;1.476;2023-02-18T10:24:51;101612.38;;;10.98;69.70
15646;BME280;7922;43.622;1.476;2023-02-18T10:27:24;101493.41;;;10.31;69.67
15646;BME280;7922;43.622;1.476;2023-02-18T10:29:50;101515.16;;;10.49;69.26
15646;BME280;7922;43.622;1.476;2023-02-18T10:32:22;101582.19;;;11.03;68.40
15646;BME280;7922;43.622;1.476;2023-02-18T10:40:22;101619.91;;;11.64;67.66
15646;BME280;7922;43.622;1.476;2023-02-18T10:46:01;101602.78;;;11.80;66.44
15646;BME280;7922;43.622;1.476;2023-02-18T10:51:13;101532.13;;;11.31;67.06
15646;BME280;7922;43.622;1.476;2023-02-18T10:53:41;101415.63;;;10.80;66.72
15646;BME280;7922;43.622;1.476;2023-02-18T10:56:07;101444.88;;;11.18;66.12
15646;BME280;7922;43.622;1.476;2023-02-18T10:58:45;101458.50;;;11.43;64.85
15646;BME280;7922;43.622;1.476;2023-02-18T11:01:16;101591.81;;;12.36;64.33
15646;BME280;7922;43.622;1.476;2023-02-18T11:03:51;101552.09;;;12.30;64.18
15646;BME280;7922;43.622;1.476;2023-02-18T11:06:21;101593.88;;;12.61;64.34
15646;BME280;7922;43.622;1.476;2023-02-18T11:08:49;101397.03;;;11.61;64.17
15646;BME280;7922;43.622;1.476;2023-02-18T11:11:18;101487.84;;;12.13;63.72
15646;BME280;7922;43.622;1.476;2023-02-18T11:13:51;101300.97;;;11.11;63.00
15646;BME280;7922;43.622;1.476;2023-02-18T11:16:21;101345.06;;;11.51;63.72
15646;BME280;7922;43.622;1.476;2023-02-18T11:18:46;101510.66;;;12.57;62.72
15646;BME280;7922;43.622;1.476;2023-02-18T11:21:28;101578.56;;;13.03;62.88
15646;BME280;7922;43.622;1.476;2023-02-18T11:23:56;101510.03;;;12.80;62.70
15646;BME280;7922;43.622;1.476;2023-02-18T11:26:32;101443.44;;;12.52;62.18
15646;BME280;7922;43.622;1.476;2023-02-18T11:29:21;101563.53;;;13.35;62.11
15646;BME280;7922;43.622;1.476;2023-02-18T11:31:50;101424.03;;;12.48;61.93
15646;BME280;7922;43.622;1.476;2023-02-18T11:34:19;101559.72;;;13.43;61.15
15646;BME280;7922;43.622;1.476;2023-02-18T11:36:46;101557.59;;;13.56;61.60
15646;BME280;7922;43.622;1.476;2023-02-18T11:41:47;101468.03;;;13.24;60.58
15646;BME280;7922;43.622;1.476;2023-02-18T11:44:38;101436.88;;;13.28;60.79
15646;BME280;7922;43.622;1.476;2023-02-18T11:49:36;101494.13;;;13.70;60.31
15646;BME280;7922;43.622;1.476;2023-02-18T11:54:39;101488.16;;;13.90;60.71
15646;BME280;7922;43.622;1.476;2023-02-18T11:57:08;101397.25;;;13.46;59.67
15646;BME280;7922;43.622;1.476;2023-02-18T11:59:36;101411.56;;;13.70;60.09
15646;BME280;7922;43.622;1.476;2023-02-18T12:04:47;101505.78;;;14.23;60.05
15646;BME280;7922;43.622;1.476;2023-02-18T12:07:19;101498.34;;;14.32;59.40
15646;BME280;7922;43.622;1.476;2023-02-18T12:09:48;101442.31;;;14.07;59.62
15646;BME280;7922;43.622;1.476;2023-02-18T12:12:19;101456.00;;;14.23;59.87
15646;BME280;7922;43.622;1.476;2023-02-18T12:14:48;101464.41;;;14.37;58.63
15646;BME280;7922;43.622;1.476;2023-02-18T12:31:58;101474.41;;;15.07;58.13
15646;BME280;7922;43.622;1.476;2023-02-18T12:34:45;101365.19;;;14.54;58.62
15646;BME280;7922;43.622;1.476;2023-02-18T12:37:21;101471.47;;;15.13;57.98
15646;BME280;7922;43.622;1.476;2023-02-18T12:50:48;101444.59;;;15.41;58.08
15646;BME280;7922;43.622;1.476;2023-02-18T12:53:30;101325.88;;;14.83;57.41
15646;BME280;7922;43.622;1.476;2023-02-18T12:56:10;101413.31;;;15.45;57.48
15646;BME280;7922;43.622;1.476;2023-02-18T12:59:12;101416.09;;;15.66;57.35
15646;BME280;7922;43.622;1.476;2023-02-18T13:04:39;101389.72;;;15.78;56.60
15646;BME280;7922;43.622;1.476;2023-02-18T13:07:45;101402.84;;;16.05;56.56
15646;BME280;7922;43.622;1.476;2023-02-18T13:13:02;101378.09;;;15.79;56.63
15646;BME280;7922;43.622;1.476;2023-02-18T13:18:00;101374.47;;;16.02;56.35
15646;BME280;7922;43.622;1.476;2023-02-18T13:23:19;101255.94;;;15.40;56.75
15646;BME280;7922;43.622;1.476;2023-02-18T13:25:48;101362.75;;;16.25;56.71
15646;BME280;7922;43.622;1.476;2023-02-18T13:28:29;101362.03;;;16.22;56.54
15646;BME280;7922;43.622;1.476;2023-02-18T13:31:09;101357.56;;;16.22;56.44
15646;BME280;7922;43.622;1.476;2023-02-18T13:33:46;101306.97;;;15.97;56.78
15646;BME280;7922;43.622;1.476;2023-02-18T13:36:31;101243.09;;;15.71;56.12
15646;BME280;7922;43.622;1.476;2023-02-18T13:41:34;101231.59;;;15.89;56.76
15646;BME280;7922;43.622;1.476;2023-02-18T13:44:00;101210.41;;;15.66;56.70
15646;BME280;7922;43.622;1.476;2023-02-18T13:46:26;101199.19;;;15.56;56.93
15646;BME280;7922;43.622;1.476;2023-02-18T13:51:29;101323.34;;;16.30;56.64
15646;BME280;7922;43.622;1.476;2023-02-18T13:54:03;101337.38;;;16.54;56.21
15646;BME280;7922;43.622;1.476;2023-02-18T13:56:32;101250.94;;;16.15;56.17
15646;BME280;7922;43.622;1.476;2023-02-18T13:59:01;101158.88;;;15.62;56.31
15646;BME280;7922;43.622;1.476;2023-02-18T14:01:41;101300.66;;;16.58;55.87
15646;BME280;7922;43.622;1.476;2023-02-18T14:10:45;101293.50;;;16.58;56.10
15646;BME280;7922;43.622;1.476;2023-02-18T14:16:03;101251.88;;;16.34;56.34
15646;BME280;7922;43.622;1.476;2023-02-18T14:21:49;101279.03;;;16.44;55.94
15646;BME280;7922;43.622;1.476;2023-02-18T14:23:59;101311.09;;;16.64;55.94
15646;BME280;7922;43.622;1.476;2023-02-18T14:26:43;101249.63;;;16.44;56.32
15646;BME280;7922;43.622;1.476;2023-02-18T14:29:16;101196.22;;;16.23;55.75
15646;BME280;7922;43.622;1.476;2023-02-18T14:31:50;101232.94;;;16.39;55.39
15646;BME280;7922;43.622;1.476;2023-02-18T14:48:01;101168.88;;;16.17;55.34
15646;BME280;7922;43.622;1.476;2023-02-18T14:50:34;101293.53;;;16.77;55.68
15646;BME280;7922;43.622;1.476;2023-02-18T14:53:06;101173.50;;;15.94;56.12
15646;BME280;7922;43.622;1.476;2023-02-18T14:55:34;101203.19;;;16.45;55.30
15646;BME280;7922;43.622;1.476;2023-02-18T15:00:42;101274.81;;;16.96;55.64
15646;BME280;7922;43.622;1.476;2023-02-18T15:03:12;101230.25;;;16.76;56.00
15646;BME280;7922;43.622;1.476;2023-02-18T15:05:38;101241.31;;;16.88;55.54
15646;BME280;7922;43.622;1.476;2023-02-18T15:08:06;101240.44;;;16.87;55.71
15646;BME280;7922;43.622;1.476;2023-02-18T15:10:41;101256.78;;;17.00;56.01
15646;BME280;7922;43.622;1.476;2023-02-18T15:13:20;101222.66;;;16.67;56.18
15646;BME280;7922;43.622;1.476;2023-02-18T15:15:51;101248.63;;;16.84;55.85
15646;BME280;7922;43.622;1.476;2023-02-18T15:20:51;101129.34;;;16.42;55.47
15646;BME280;7922;43.622;1.476;2023-02-18T15:23:17;101180.94;;;16.63;55.46
15646;BME280;7922;43.622;1.476;2023-02-18T15:25:48;101205.03;;;16.82;55.16
15646;BME280;7922;43.622;1.476;2023-02-18T15:28:23;101109.47;;;16.29;54.84